sensor_id;sensor_type;location;lat;lon;timestamp;P1;durP1;ratioP1;P2;durP2;ratioP2
6135;SDS011;24008;42.664;23.372;2022-08-25T00:01:40;29.52;;;11.00;;
6135;SDS011;24008;42.664;23.372;2022-08-25T00:04:11;24.15;;;11.15;;
6135;SDS011;24008;42.664;23.372;2022-08-25T00:06:39;22.23;;;11.43;;
6135;SDS011;24008;42.664;23.372;2022-08-25T00:09:11;29.38;;;12.18;;
6135;SDS011;24008;42.664;23.372;2022-08-25T00:11:39;21.13;;;10.43;;
6135;SDS011;24008;42.664;23.372;2022-08-25T00:14:09;26.42;;;11.23;;
6135;SDS011;24008;42.664;23.372;2022-08-25T00:16:38;23.77;;;11.60;;
6135;SDS011;24008;42.664;23.372;2022-08-25T00:19:08;19.73;;;10.95;;
6135;SDS011;24008;42.664;23.372;2022-08-25T00:21:37;25.40;;;11.15;;
6135;SDS011;24008;42.664;23.372;2022-08-25T00:24:05;20.27;;;11.38;;
6135;SDS011;24008;42.664;23.372;2022-08-25T00:26:36;29.48;;;11.13;;
6135;SDS011;24008;42.664;23.372;2022-08-25T00:29:04;28.60;;;10.85;;
6135;SDS011;24008;42.664;23.372;2022-08-25T00:31:31;20.73;;;10.77;;
6135;SDS011;24008;42.664;23.372;2022-08-25T00:33:57;22.58;;;11.10;;
6135;SDS011;24008;42.664;23.372;2022-08-25T00:36:25;25.23;;;10.98;;
6135;SDS011;24008;42.664;23.372;2022-08-25T00:38:53;24.45;;;11.48;;
6135;SDS011;24008;42.664;23.372;2022-08-25T00:41:21;24.08;;;10.80;;
6135;SDS011;24008;42.664;23.372;2022-08-25T00:43:51;20.88;;;10.55;;
6135;SDS011;24008;42.664;23.372;2022-08-25T00:46:22;21.05;;;10.48;;
6135;SDS011;24008;42.664;23.372;2022-08-25T00:48:52;25.52;;;10.90;;
6135;SDS011;24008;42.664;23.372;2022-08-25T00:51:24;24.73;;;10.88;;
6135;SDS011;24008;42.664;23.372;2022-08-25T00:53:55;24.17;;;11.20;;
6135;SDS011;24008;42.664;23.372;2022-08-25T00:56:23;21.40;;;11.10;;
6135;SDS011;24008;42.664;23.372;2022-08-25T00:58:52;23.10;;;10.65;;
6135;SDS011;24008;42.664;23.372;2022-08-25T01:01:19;25.13;;;10.57;;
6135;SDS011;24008;42.664;23.372;2022-08-25T01:03:46;22.38;;;10.27;;
6135;SDS011;24008;42.664;23.372;2022-08-25T01:06:13;22.73;;;10.35;;
6135;SDS011;24008;42.664;23.372;2022-08-25T01:08:40;25.73;;;11.35;;
6135;SDS011;24008;42.664;23.372;2022-08-25T01:11:07;24.17;;;11.10;;
6135;SDS011;24008;42.664;23.372;2022-08-25T01:13:36;23.70;;;10.60;;
6135;SDS011;24008;42.664;23.372;2022-08-25T01:16:08;22.10;;;10.98;;
6135;SDS011;24008;42.664;23.372;2022-08-25T01:18:46;22.42;;;10.68;;
6135;SDS011;24008;42.664;23.372;2022-08-25T01:21:16;29.08;;;11.45;;
6135;SDS011;24008;42.664;23.372;2022-08-25T01:23:44;24.85;;;11.20;;
6135;SDS011;24008;42.664;23.372;2022-08-25T01:26:14;26.13;;;10.68;;
6135;SDS011;24008;42.664;23.372;2022-08-25T01:28:44;24.90;;;11.00;;
6135;SDS011;24008;42.664;23.372;2022-08-25T01:31:30;18.50;;;10.40;;
6135;SDS011;24008;42.664;23.372;2022-08-25T01:33:57;22.55;;;10.55;;
6135;SDS011;24008;42.664;23.372;2022-08-25T01:36:26;21.65;;;10.48;;
6135;SDS011;24008;42.664;23.372;2022-08-25T01:38:54;22.08;;;10.63;;
6135;SDS011;24008;42.664;23.372;2022-08-25T01:41:25;23.55;;;10.95;;
6135;SDS011;24008;42.664;23.372;2022-08-25T01:44:01;34.30;;;10.98;;
6135;SDS011;24008;42.664;23.372;2022-08-25T01:46:30;17.98;;;10.65;;
6135;SDS011;24008;42.664;23.372;2022-08-25T01:48:57;16.23;;;10.25;;
6135;SDS011;24008;42.664;23.372;2022-08-25T01:51:27;23.33;;;10.55;;
6135;SDS011;24008;42.664;23.372;2022-08-25T01:53:58;21.83;;;10.73;;
6135;SDS011;24008;42.664;23.372;2022-08-25T01:56:25;20.05;;;10.68;;
6135;SDS011;24008;42.664;23.372;2022-08-25T01:58:52;23.70;;;10.07;;
6135;SDS011;24008;42.664;23.372;2022-08-25T02:01:19;22.35;;;10.38;;
6135;SDS011;24008;42.664;23.372;2022-08-25T02:03:48;22.42;;;10.75;;
6135;SDS011;24008;42.664;23.372;2022-08-25T02:06:18;17.42;;;9.60;;
6135;SDS011;24008;42.664;23.372;2022-08-25T02:08:50;16.50;;;9.07;;
6135;SDS011;24008;42.664;23.372;2022-08-25T02:11:17;18.92;;;9.95;;
6135;SDS011;24008;42.664;23.372;2022-08-25T02:13:45;22.17;;;10.10;;
6135;SDS011;24008;42.664;23.372;2022-08-25T02:16:13;21.23;;;10.07;;
6135;SDS011;24008;42.664;23.372;2022-08-25T02:18:44;19.60;;;10.77;;
6135;SDS011;24008;42.664;23.372;2022-08-25T02:21:11;25.73;;;10.93;;
6135;SDS011;24008;42.664;23.372;2022-08-25T02:23:38;22.38;;;11.07;;
6135;SDS011;24008;42.664;23.372;2022-08-25T02:26:07;24.30;;;12.20;;
6135;SDS011;24008;42.664;23.372;2022-08-25T02:28:34;22.88;;;11.50;;
6135;SDS011;24008;42.664;23.372;2022-08-25T02:31:02;19.40;;;11.38;;
6135;SDS011;24008;42.664;23.372;2022-08-25T02:33:30;24.20;;;11.77;;
6135;SDS011;24008;42.664;23.372;2022-08-25T02:35:57;19.45;;;11.50;;
6135;SDS011;24008;42.664;23.372;2022-08-25T02:38:25;20.35;;;11.23;;
6135;SDS011;24008;42.664;23.372;2022-08-25T02:40:53;24.00;;;11.25;;
6135;SDS011;24008;42.664;23.372;2022-08-25T02:43:21;20.38;;;10.85;;
6135;SDS011;24008;42.664;23.372;2022-08-25T02:45:48;24.92;;;10.55;;
6135;SDS011;24008;42.664;23.372;2022-08-25T02:48:15;22.05;;;11.00;;
6135;SDS011;24008;42.664;23.372;2022-08-25T02:50:45;23.00;;;11.52;;
6135;SDS011;24008;42.664;23.372;2022-08-25T02:53:12;23.45;;;11.05;;
6135;SDS011;24008;42.664;23.372;2022-08-25T02:55:39;21.58;;;10.70;;
6135;SDS011;24008;42.664;23.372;2022-08-25T02:58:06;18.30;;;10.70;;
6135;SDS011;24008;42.664;23.372;2022-08-25T03:00:36;19.58;;;10.75;;
6135;SDS011;24008;42.664;23.372;2022-08-25T03:03:03;30.33;;;11.68;;
6135;SDS011;24008;42.664;23.372;2022-08-25T03:05:30;24.88;;;12.45;;
6135;SDS011;24008;42.664;23.372;2022-08-25T03:07:57;20.65;;;10.85;;
6135;SDS011;24008;42.664;23.372;2022-08-25T03:10:25;20.48;;;11.15;;
6135;SDS011;24008;42.664;23.372;2022-08-25T03:12:52;24.33;;;11.38;;
6135;SDS011;24008;42.664;23.372;2022-08-25T03:15:19;22.92;;;11.13;;
6135;SDS011;24008;42.664;23.372;2022-08-25T03:17:47;27.15;;;11.27;;
6135;SDS011;24008;42.664;23.372;2022-08-25T03:20:14;20.13;;;10.63;;
6135;SDS011;24008;42.664;23.372;2022-08-25T03:22:41;23.58;;;10.85;;
6135;SDS011;24008;42.664;23.372;2022-08-25T03:25:09;20.45;;;11.02;;
6135;SDS011;24008;42.664;23.372;2022-08-25T03:27:54;25.17;;;11.02;;
6135;SDS011;24008;42.664;23.372;2022-08-25T03:30:21;20.45;;;10.90;;
6135;SDS011;24008;42.664;23.372;2022-08-25T03:32:49;21.48;;;11.18;;
6135;SDS011;24008;42.664;23.372;2022-08-25T03:35:16;20.48;;;11.77;;
6135;SDS011;24008;42.664;23.372;2022-08-25T03:37:43;24.65;;;10.77;;
6135;SDS011;24008;42.664;23.372;2022-08-25T03:40:11;23.67;;;10.80;;
6135;SDS011;24008;42.664;23.372;2022-08-25T03:42:39;27.45;;;13.48;;
6135;SDS011;24008;42.664;23.372;2022-08-25T03:45:07;27.00;;;14.25;;
6135;SDS011;24008;42.664;23.372;2022-08-25T03:47:36;33.88;;;18.95;;
6135;SDS011;24008;42.664;23.372;2022-08-25T03:50:06;25.73;;;13.52;;
6135;SDS011;24008;42.664;23.372;2022-08-25T03:52:36;25.70;;;13.23;;
6135;SDS011;24008;42.664;23.372;2022-08-25T03:55:03;26.55;;;13.43;;
6135;SDS011;24008;42.664;23.372;2022-08-25T03:57:32;25.15;;;15.52;;
6135;SDS011;24008;42.664;23.372;2022-08-25T03:59:59;40.28;;;25.48;;
6135;SDS011;24008;42.664;23.372;2022-08-25T04:02:26;38.08;;;23.92;;
6135;SDS011;24008;42.664;23.372;2022-08-25T04:04:54;51.00;;;23.92;;
6135;SDS011;24008;42.664;23.372;2022-08-25T04:07:22;36.97;;;23.13;;
6135;SDS011;24008;42.664;23.372;2022-08-25T04:09:49;31.05;;;16.38;;
6135;SDS011;24008;42.664;23.372;2022-08-25T04:12:16;37.53;;;18.25;;
6135;SDS011;24008;42.664;23.372;2022-08-25T04:14:43;29.70;;;13.48;;
6135;SDS011;24008;42.664;23.372;2022-08-25T04:17:09;38.00;;;16.33;;
6135;SDS011;24008;42.664;23.372;2022-08-25T04:19:36;31.25;;;15.88;;
6135;SDS011;24008;42.664;23.372;2022-08-25T04:22:03;33.50;;;18.48;;
6135;SDS011;24008;42.664;23.372;2022-08-25T04:24:31;19.40;;;12.93;;
6135;SDS011;24008;42.664;23.372;2022-08-25T04:26:58;22.35;;;12.55;;
6135;SDS011;24008;42.664;23.372;2022-08-25T04:29:25;33.28;;;13.13;;
6135;SDS011;24008;42.664;23.372;2022-08-25T04:31:52;23.52;;;11.75;;
6135;SDS011;24008;42.664;23.372;2022-08-25T04:34:21;25.45;;;12.27;;
6135;SDS011;24008;42.664;23.372;2022-08-25T04:36:49;28.42;;;11.73;;
6135;SDS011;24008;42.664;23.372;2022-08-25T04:39:16;23.88;;;12.13;;
6135;SDS011;24008;42.664;23.372;2022-08-25T04:41:47;23.88;;;11.55;;
6135;SDS011;24008;42.664;23.372;2022-08-25T04:44:14;20.48;;;11.40;;
6135;SDS011;24008;42.664;23.372;2022-08-25T04:46:42;23.70;;;11.63;;
6135;SDS011;24008;42.664;23.372;2022-08-25T04:49:09;26.13;;;11.23;;
6135;SDS011;24008;42.664;23.372;2022-08-25T04:51:36;28.42;;;11.80;;
6135;SDS011;24008;42.664;23.372;2022-08-25T04:54:06;22.63;;;11.50;;
6135;SDS011;24008;42.664;23.372;2022-08-25T04:56:34;21.38;;;11.55;;
6135;SDS011;24008;42.664;23.372;2022-08-25T04:59:04;23.27;;;11.60;;
6135;SDS011;24008;42.664;23.372;2022-08-25T05:01:32;25.95;;;11.93;;
6135;SDS011;24008;42.664;23.372;2022-08-25T05:04:00;21.20;;;12.52;;
6135;SDS011;24008;42.664;23.372;2022-08-25T05:06:28;22.92;;;11.55;;
6135;SDS011;24008;42.664;23.372;2022-08-25T05:08:56;21.35;;;12.00;;
6135;SDS011;24008;42.664;23.372;2022-08-25T05:11:23;23.10;;;10.70;;
6135;SDS011;24008;42.664;23.372;2022-08-25T05:13:52;17.90;;;10.50;;
6135;SDS011;24008;42.664;23.372;2022-08-25T05:16:22;27.70;;;11.95;;
6135;SDS011;24008;42.664;23.372;2022-08-25T05:18:50;22.60;;;11.77;;
6135;SDS011;24008;42.664;23.372;2022-08-25T05:21:18;21.83;;;12.15;;
6135;SDS011;24008;42.664;23.372;2022-08-25T05:23:52;27.95;;;12.32;;
6135;SDS011;24008;42.664;23.372;2022-08-25T05:26:21;23.98;;;11.88;;
6135;SDS011;24008;42.664;23.372;2022-08-25T05:28:50;25.45;;;11.68;;
6135;SDS011;24008;42.664;23.372;2022-08-25T05:31:19;24.65;;;12.05;;
6135;SDS011;24008;42.664;23.372;2022-08-25T05:33:48;24.23;;;12.43;;
6135;SDS011;24008;42.664;23.372;2022-08-25T05:36:17;26.08;;;12.65;;
6135;SDS011;24008;42.664;23.372;2022-08-25T05:38:45;28.75;;;12.45;;
6135;SDS011;24008;42.664;23.372;2022-08-25T05:41:13;25.45;;;11.40;;
6135;SDS011;24008;42.664;23.372;2022-08-25T05:43:43;25.10;;;12.02;;
6135;SDS011;24008;42.664;23.372;2022-08-25T05:46:11;21.55;;;10.93;;
6135;SDS011;24008;42.664;23.372;2022-08-25T05:48:39;23.55;;;12.27;;
6135;SDS011;24008;42.664;23.372;2022-08-25T05:51:07;26.83;;;11.82;;
6135;SDS011;24008;42.664;23.372;2022-08-25T05:53:35;19.48;;;10.98;;
6135;SDS011;24008;42.664;23.372;2022-08-25T05:56:04;25.98;;;11.32;;
6135;SDS011;24008;42.664;23.372;2022-08-25T05:58:31;31.65;;;11.38;;
6135;SDS011;24008;42.664;23.372;2022-08-25T06:00:58;27.23;;;11.32;;
6135;SDS011;24008;42.664;23.372;2022-08-25T06:03:48;28.60;;;11.73;;
6135;SDS011;24008;42.664;23.372;2022-08-25T06:06:17;20.15;;;11.23;;
6135;SDS011;24008;42.664;23.372;2022-08-25T06:08:44;22.98;;;11.27;;
6135;SDS011;24008;42.664;23.372;2022-08-25T06:11:12;30.35;;;11.93;;
6135;SDS011;24008;42.664;23.372;2022-08-25T06:13:40;24.25;;;11.90;;
6135;SDS011;24008;42.664;23.372;2022-08-25T06:16:07;27.73;;;11.82;;
6135;SDS011;24008;42.664;23.372;2022-08-25T06:18:34;23.33;;;10.77;;
6135;SDS011;24008;42.664;23.372;2022-08-25T06:21:07;21.65;;;11.38;;
6135;SDS011;24008;42.664;23.372;2022-08-25T06:23:35;30.73;;;12.98;;
6135;SDS011;24008;42.664;23.372;2022-08-25T06:26:02;35.88;;;13.52;;
6135;SDS011;24008;42.664;23.372;2022-08-25T06:28:29;31.65;;;12.15;;
6135;SDS011;24008;42.664;23.372;2022-08-25T06:30:57;58.75;;;13.63;;
6135;SDS011;24008;42.664;23.372;2022-08-25T06:33:25;25.88;;;10.57;;
6135;SDS011;24008;42.664;23.372;2022-08-25T06:35:52;32.20;;;11.65;;
6135;SDS011;24008;42.664;23.372;2022-08-25T06:38:21;28.27;;;11.77;;
6135;SDS011;24008;42.664;23.372;2022-08-25T06:40:48;23.35;;;10.38;;
6135;SDS011;24008;42.664;23.372;2022-08-25T06:43:16;22.92;;;11.27;;
6135;SDS011;24008;42.664;23.372;2022-08-25T06:45:43;21.75;;;11.13;;
6135;SDS011;24008;42.664;23.372;2022-08-25T06:48:10;27.45;;;11.60;;
6135;SDS011;24008;42.664;23.372;2022-08-25T06:50:37;33.83;;;10.32;;
6135;SDS011;24008;42.664;23.372;2022-08-25T06:53:05;32.55;;;10.57;;
6135;SDS011;24008;42.664;23.372;2022-08-25T06:55:33;21.58;;;9.23;;
6135;SDS011;24008;42.664;23.372;2022-08-25T06:58:01;20.48;;;9.35;;
6135;SDS011;24008;42.664;23.372;2022-08-25T07:00:28;22.40;;;8.98;;
6135;SDS011;24008;42.664;23.372;2022-08-25T07:02:55;23.08;;;9.50;;
6135;SDS011;24008;42.664;23.372;2022-08-25T07:05:22;18.92;;;8.40;;
6135;SDS011;24008;42.664;23.372;2022-08-25T07:07:49;25.70;;;9.70;;
6135;SDS011;24008;42.664;23.372;2022-08-25T07:10:16;36.15;;;17.95;;
6135;SDS011;24008;42.664;23.372;2022-08-25T07:12:44;27.52;;;10.80;;
6135;SDS011;24008;42.664;23.372;2022-08-25T07:15:11;25.00;;;11.30;;
6135;SDS011;24008;42.664;23.372;2022-08-25T07:17:38;23.17;;;10.95;;
6135;SDS011;24008;42.664;23.372;2022-08-25T07:20:05;29.77;;;11.77;;
6135;SDS011;24008;42.664;23.372;2022-08-25T07:22:33;28.88;;;11.63;;
6135;SDS011;24008;42.664;23.372;2022-08-25T07:24:59;34.63;;;13.20;;
6135;SDS011;24008;42.664;23.372;2022-08-25T07:27:27;31.35;;;12.63;;
6135;SDS011;24008;42.664;23.372;2022-08-25T07:29:57;25.00;;;12.48;;
6135;SDS011;24008;42.664;23.372;2022-08-25T07:32:23;26.20;;;10.60;;
6135;SDS011;24008;42.664;23.372;2022-08-25T07:34:50;28.45;;;11.02;;
6135;SDS011;24008;42.664;23.372;2022-08-25T07:37:36;26.15;;;11.18;;
6135;SDS011;24008;42.664;23.372;2022-08-25T07:40:04;23.25;;;9.57;;
6135;SDS011;24008;42.664;23.372;2022-08-25T07:42:32;23.10;;;9.75;;
6135;SDS011;24008;42.664;23.372;2022-08-25T07:45:01;30.10;;;12.43;;
6135;SDS011;24008;42.664;23.372;2022-08-25T07:47:29;20.65;;;9.60;;
6135;SDS011;24008;42.664;23.372;2022-08-25T07:49:57;24.65;;;10.10;;
6135;SDS011;24008;42.664;23.372;2022-08-25T07:52:24;27.00;;;11.45;;
6135;SDS011;24008;42.664;23.372;2022-08-25T07:54:51;26.67;;;12.52;;
6135;SDS011;24008;42.664;23.372;2022-08-25T07:57:19;30.00;;;11.68;;
6135;SDS011;24008;42.664;23.372;2022-08-25T07:59:48;30.73;;;12.10;;
6135;SDS011;24008;42.664;23.372;2022-08-25T08:02:17;30.90;;;11.15;;
6135;SDS011;24008;42.664;23.372;2022-08-25T08:04:44;25.20;;;8.48;;
6135;SDS011;24008;42.664;23.372;2022-08-25T08:07:14;24.30;;;8.25;;
6135;SDS011;24008;42.664;23.372;2022-08-25T08:09:42;26.50;;;8.68;;
6135;SDS011;24008;42.664;23.372;2022-08-25T08:12:09;29.33;;;11.57;;
6135;SDS011;24008;42.664;23.372;2022-08-25T08:14:36;52.88;;;12.73;;
6135;SDS011;24008;42.664;23.372;2022-08-25T08:17:04;43.35;;;10.45;;
6135;SDS011;24008;42.664;23.372;2022-08-25T08:19:33;43.20;;;11.13;;
6135;SDS011;24008;42.664;23.372;2022-08-25T08:22:00;27.27;;;8.45;;
6135;SDS011;24008;42.664;23.372;2022-08-25T08:24:28;29.60;;;8.43;;
6135;SDS011;24008;42.664;23.372;2022-08-25T08:26:55;34.95;;;9.20;;
6135;SDS011;24008;42.664;23.372;2022-08-25T08:29:22;33.35;;;8.57;;
6135;SDS011;24008;42.664;23.372;2022-08-25T08:31:49;35.03;;;9.57;;
6135;SDS011;24008;42.664;23.372;2022-08-25T08:34:16;37.90;;;9.10;;
6135;SDS011;24008;42.664;23.372;2022-08-25T08:36:44;32.83;;;7.93;;
6135;SDS011;24008;42.664;23.372;2022-08-25T08:39:11;43.55;;;10.88;;
6135;SDS011;24008;42.664;23.372;2022-08-25T08:41:42;37.83;;;7.68;;
6135;SDS011;24008;42.664;23.372;2022-08-25T08:44:38;41.00;;;9.38;;
6135;SDS011;24008;42.664;23.372;2022-08-25T08:47:18;44.65;;;8.95;;
6135;SDS011;24008;42.664;23.372;2022-08-25T08:49:54;36.38;;;9.15;;
6135;SDS011;24008;42.664;23.372;2022-08-25T08:52:35;41.25;;;10.15;;
6135;SDS011;24008;42.664;23.372;2022-08-25T08:55:07;39.97;;;9.80;;
6135;SDS011;24008;42.664;23.372;2022-08-25T08:57:42;45.55;;;9.88;;
6135;SDS011;24008;42.664;23.372;2022-08-25T09:00:14;44.20;;;10.18;;
6135;SDS011;24008;42.664;23.372;2022-08-25T09:02:45;51.55;;;10.38;;
6135;SDS011;24008;42.664;23.372;2022-08-25T09:05:16;33.38;;;7.88;;
6135;SDS011;24008;42.664;23.372;2022-08-25T09:07:47;36.13;;;8.15;;
6135;SDS011;24008;42.664;23.372;2022-08-25T09:10:18;42.70;;;8.77;;
6135;SDS011;24008;42.664;23.372;2022-08-25T09:12:46;37.97;;;7.50;;
6135;SDS011;24008;42.664;23.372;2022-08-25T09:15:25;41.80;;;7.43;;
6135;SDS011;24008;42.664;23.372;2022-08-25T09:18:15;36.17;;;8.10;;
6135;SDS011;24008;42.664;23.372;2022-08-25T09:20:58;38.78;;;7.28;;
6135;SDS011;24008;42.664;23.372;2022-08-25T09:23:35;27.80;;;7.20;;
6135;SDS011;24008;42.664;23.372;2022-08-25T09:26:16;30.42;;;7.95;;
6135;SDS011;24008;42.664;23.372;2022-08-25T09:28:53;32.47;;;8.82;;
6135;SDS011;24008;42.664;23.372;2022-08-25T09:31:29;39.45;;;9.60;;
6135;SDS011;24008;42.664;23.372;2022-08-25T09:33:59;38.45;;;8.23;;
6135;SDS011;24008;42.664;23.372;2022-08-25T09:36:29;30.65;;;7.20;;
6135;SDS011;24008;42.664;23.372;2022-08-25T09:38:57;41.50;;;8.02;;
6135;SDS011;24008;42.664;23.372;2022-08-25T09:44:19;28.90;;;6.80;;
6135;SDS011;24008;42.664;23.372;2022-08-25T09:46:55;34.25;;;6.78;;
6135;SDS011;24008;42.664;23.372;2022-08-25T09:49:36;43.50;;;7.55;;
6135;SDS011;24008;42.664;23.372;2022-08-25T09:52:22;31.10;;;6.47;;
6135;SDS011;24008;42.664;23.372;2022-08-25T09:54:53;30.40;;;6.10;;
6135;SDS011;24008;42.664;23.372;2022-08-25T09:57:29;25.75;;;6.13;;
6135;SDS011;24008;42.664;23.372;2022-08-25T10:00:08;28.88;;;7.43;;
6135;SDS011;24008;42.664;23.372;2022-08-25T10:02:37;28.05;;;6.22;;
6135;SDS011;24008;42.664;23.372;2022-08-25T10:05:16;37.30;;;6.85;;
6135;SDS011;24008;42.664;23.372;2022-08-25T10:07:48;22.80;;;5.82;;
6135;SDS011;24008;42.664;23.372;2022-08-25T10:10:21;25.58;;;6.53;;
6135;SDS011;24008;42.664;23.372;2022-08-25T10:12:53;32.72;;;7.13;;
6135;SDS011;24008;42.664;23.372;2022-08-25T10:15:24;27.42;;;6.32;;
6135;SDS011;24008;42.664;23.372;2022-08-25T10:17:54;36.05;;;6.82;;
6135;SDS011;24008;42.664;23.372;2022-08-25T10:20:22;29.27;;;6.50;;
6135;SDS011;24008;42.664;23.372;2022-08-25T10:22:50;33.80;;;6.18;;
6135;SDS011;24008;42.664;23.372;2022-08-25T10:25:27;28.92;;;6.63;;
6135;SDS011;24008;42.664;23.372;2022-08-25T10:27:59;26.70;;;5.80;;
6135;SDS011;24008;42.664;23.372;2022-08-25T10:30:35;32.95;;;6.40;;
6135;SDS011;24008;42.664;23.372;2022-08-25T10:33:18;28.88;;;5.80;;
6135;SDS011;24008;42.664;23.372;2022-08-25T10:35:55;33.00;;;5.53;;
6135;SDS011;24008;42.664;23.372;2022-08-25T10:38:32;23.77;;;6.85;;
6135;SDS011;24008;42.664;23.372;2022-08-25T10:41:07;32.50;;;5.82;;
6135;SDS011;24008;42.664;23.372;2022-08-25T10:43:46;29.13;;;5.65;;
6135;SDS011;24008;42.664;23.372;2022-08-25T10:46:21;38.65;;;9.20;;
6135;SDS011;24008;42.664;23.372;2022-08-25T10:48:58;31.08;;;6.25;;
6135;SDS011;24008;42.664;23.372;2022-08-25T10:51:36;35.10;;;6.57;;
6135;SDS011;24008;42.664;23.372;2022-08-25T10:54:16;39.97;;;6.22;;
6135;SDS011;24008;42.664;23.372;2022-08-25T10:56:54;31.77;;;6.20;;
6135;SDS011;24008;42.664;23.372;2022-08-25T10:59:46;47.78;;;11.27;;
6135;SDS011;24008;42.664;23.372;2022-08-25T11:02:28;30.58;;;5.75;;
6135;SDS011;24008;42.664;23.372;2022-08-25T11:05:26;22.30;;;5.43;;
6135;SDS011;24008;42.664;23.372;2022-08-25T11:07:58;28.55;;;5.90;;
6135;SDS011;24008;42.664;23.372;2022-08-25T11:10:33;23.90;;;5.88;;
6135;SDS011;24008;42.664;23.372;2022-08-25T11:13:09;21.92;;;5.28;;
6135;SDS011;24008;42.664;23.372;2022-08-25T11:15:44;29.23;;;5.22;;
6135;SDS011;24008;42.664;23.372;2022-08-25T11:18:17;20.27;;;5.47;;
6135;SDS011;24008;42.664;23.372;2022-08-25T11:20:48;31.98;;;6.78;;
6135;SDS011;24008;42.664;23.372;2022-08-25T11:23:21;27.38;;;5.63;;
6135;SDS011;24008;42.664;23.372;2022-08-25T11:25:55;27.02;;;5.40;;
6135;SDS011;24008;42.664;23.372;2022-08-25T11:28:29;26.23;;;5.97;;
6135;SDS011;24008;42.664;23.372;2022-08-25T11:31:01;26.35;;;5.88;;
6135;SDS011;24008;42.664;23.372;2022-08-25T11:33:29;36.22;;;5.53;;
6135;SDS011;24008;42.664;23.372;2022-08-25T11:35:58;25.50;;;6.03;;
6135;SDS011;24008;42.664;23.372;2022-08-25T11:38:35;28.15;;;6.15;;
6135;SDS011;24008;42.664;23.372;2022-08-25T11:41:16;29.83;;;6.57;;
6135;SDS011;24008;42.664;23.372;2022-08-25T11:43:55;30.10;;;7.38;;
6135;SDS011;24008;42.664;23.372;2022-08-25T11:46:39;23.95;;;6.78;;
6135;SDS011;24008;42.664;23.372;2022-08-25T11:49:28;23.23;;;6.40;;
6135;SDS011;24008;42.664;23.372;2022-08-25T11:52:27;17.25;;;6.30;;
6135;SDS011;24008;42.664;23.372;2022-08-25T11:55:10;23.60;;;6.10;;
6135;SDS011;24008;42.664;23.372;2022-08-25T11:57:38;22.70;;;5.50;;
6135;SDS011;24008;42.664;23.372;2022-08-25T12:00:10;20.38;;;5.75;;
6135;SDS011;24008;42.664;23.372;2022-08-25T12:02:40;22.33;;;5.53;;
6135;SDS011;24008;42.664;23.372;2022-08-25T12:05:11;29.38;;;5.80;;
6135;SDS011;24008;42.664;23.372;2022-08-25T12:07:57;22.85;;;6.20;;
6135;SDS011;24008;42.664;23.372;2022-08-25T12:10:51;22.33;;;6.07;;
6135;SDS011;24008;42.664;23.372;2022-08-25T12:13:37;18.17;;;5.30;;
6135;SDS011;24008;42.664;23.372;2022-08-25T12:16:08;13.18;;;5.35;;
6135;SDS011;24008;42.664;23.372;2022-08-25T12:21:51;21.73;;;5.38;;
6135;SDS011;24008;42.664;23.372;2022-08-25T12:24:20;21.42;;;5.38;;
6135;SDS011;24008;42.664;23.372;2022-08-25T12:26:52;18.65;;;5.80;;
6135;SDS011;24008;42.664;23.372;2022-08-25T12:29:25;27.42;;;6.85;;
6135;SDS011;24008;42.664;23.372;2022-08-25T12:31:59;21.83;;;5.80;;
6135;SDS011;24008;42.664;23.372;2022-08-25T12:34:44;16.58;;;5.20;;
6135;SDS011;24008;42.664;23.372;2022-08-25T12:37:25;21.05;;;5.45;;
6135;SDS011;24008;42.664;23.372;2022-08-25T12:39:55;16.20;;;4.82;;
6135;SDS011;24008;42.664;23.372;2022-08-25T12:42:27;20.42;;;5.38;;
6135;SDS011;24008;42.664;23.372;2022-08-25T12:45:13;17.58;;;4.82;;
6135;SDS011;24008;42.664;23.372;2022-08-25T12:51:09;22.80;;;5.05;;
6135;SDS011;24008;42.664;23.372;2022-08-25T12:53:42;17.10;;;5.10;;
6135;SDS011;24008;42.664;23.372;2022-08-25T12:56:17;18.98;;;5.68;;
6135;SDS011;24008;42.664;23.372;2022-08-25T12:58:48;25.25;;;4.57;;
6135;SDS011;24008;42.664;23.372;2022-08-25T13:01:22;18.05;;;5.80;;
6135;SDS011;24008;42.664;23.372;2022-08-25T13:07:06;16.23;;;4.78;;
6135;SDS011;24008;42.664;23.372;2022-08-25T13:12:39;27.75;;;5.05;;
6135;SDS011;24008;42.664;23.372;2022-08-25T13:15:13;27.77;;;5.50;;
6135;SDS011;24008;42.664;23.372;2022-08-25T13:17:49;25.80;;;5.55;;
6135;SDS011;24008;42.664;23.372;2022-08-25T13:20:21;24.25;;;5.85;;
6135;SDS011;24008;42.664;23.372;2022-08-25T13:22:50;22.45;;;5.50;;
6135;SDS011;24008;42.664;23.372;2022-08-25T13:25:19;21.02;;;5.88;;
6135;SDS011;24008;42.664;23.372;2022-08-25T13:27:48;23.45;;;7.15;;
6135;SDS011;24008;42.664;23.372;2022-08-25T13:30:25;21.60;;;5.97;;
6135;SDS011;24008;42.664;23.372;2022-08-25T13:32:54;24.58;;;4.93;;
6135;SDS011;24008;42.664;23.372;2022-08-25T13:35:24;26.50;;;5.38;;
6135;SDS011;24008;42.664;23.372;2022-08-25T13:38:02;23.75;;;5.90;;
6135;SDS011;24008;42.664;23.372;2022-08-25T13:40:36;23.67;;;5.63;;
6135;SDS011;24008;42.664;23.372;2022-08-25T13:43:04;23.95;;;5.05;;
6135;SDS011;24008;42.664;23.372;2022-08-25T13:45:36;22.45;;;5.60;;
6135;SDS011;24008;42.664;23.372;2022-08-25T13:48:05;20.00;;;5.05;;
6135;SDS011;24008;42.664;23.372;2022-08-25T13:50:36;17.08;;;5.60;;
6135;SDS011;24008;42.664;23.372;2022-08-25T13:53:05;31.23;;;5.80;;
6135;SDS011;24008;42.664;23.372;2022-08-25T13:55:36;17.25;;;5.00;;
6135;SDS011;24008;42.664;23.372;2022-08-25T13:58:05;24.20;;;5.78;;
6135;SDS011;24008;42.664;23.372;2022-08-25T14:00:39;27.25;;;5.45;;
6135;SDS011;24008;42.664;23.372;2022-08-25T14:03:27;26.45;;;6.05;;
6135;SDS011;24008;42.664;23.372;2022-08-25T14:06:05;15.80;;;5.53;;
6135;SDS011;24008;42.664;23.372;2022-08-25T14:08:34;18.13;;;5.65;;
6135;SDS011;24008;42.664;23.372;2022-08-25T14:11:07;20.50;;;5.20;;
6135;SDS011;24008;42.664;23.372;2022-08-25T14:13:37;20.90;;;4.95;;
6135;SDS011;24008;42.664;23.372;2022-08-25T14:16:06;19.52;;;5.45;;
6135;SDS011;24008;42.664;23.372;2022-08-25T14:18:34;22.73;;;5.45;;
6135;SDS011;24008;42.664;23.372;2022-08-25T14:21:02;24.02;;;5.50;;
6135;SDS011;24008;42.664;23.372;2022-08-25T14:23:36;19.52;;;5.07;;
6135;SDS011;24008;42.664;23.372;2022-08-25T14:26:04;25.60;;;5.78;;
6135;SDS011;24008;42.664;23.372;2022-08-25T14:28:31;21.27;;;9.40;;
6135;SDS011;24008;42.664;23.372;2022-08-25T14:30:58;23.58;;;8.40;;
6135;SDS011;24008;42.664;23.372;2022-08-25T14:33:29;22.23;;;6.85;;
6135;SDS011;24008;42.664;23.372;2022-08-25T14:35:59;26.38;;;8.30;;
6135;SDS011;24008;42.664;23.372;2022-08-25T14:38:30;25.70;;;5.88;;
6135;SDS011;24008;42.664;23.372;2022-08-25T14:40:57;21.80;;;7.15;;
6135;SDS011;24008;42.664;23.372;2022-08-25T14:43:30;26.67;;;6.00;;
6135;SDS011;24008;42.664;23.372;2022-08-25T14:45:57;24.20;;;6.13;;
6135;SDS011;24008;42.664;23.372;2022-08-25T14:48:25;33.30;;;8.27;;
6135;SDS011;24008;42.664;23.372;2022-08-25T14:50:55;16.95;;;5.38;;
6135;SDS011;24008;42.664;23.372;2022-08-25T14:53:24;26.30;;;4.68;;
6135;SDS011;24008;42.664;23.372;2022-08-25T14:55:54;23.90;;;6.70;;
6135;SDS011;24008;42.664;23.372;2022-08-25T14:58:22;20.92;;;5.32;;
6135;SDS011;24008;42.664;23.372;2022-08-25T15:00:49;22.73;;;5.35;;
6135;SDS011;24008;42.664;23.372;2022-08-25T15:03:17;20.17;;;5.25;;
6135;SDS011;24008;42.664;23.372;2022-08-25T15:05:49;33.40;;;6.38;;